Time;durP1;ratioP1;P1;durP2;ratioP2;P2;SDS_P1;SDS_P2;PMS_P1;PMS_P2;Temp;Humidity;BMP_temperature;BMP_pressure;BME280_temperature;BME280_humidity;BME280_pressure;Samples;Min_cycle;Max_cycle;Signal;HPM_P1;HPM_P2
2021/03/02 00:00:55;;;;;;;13.63;6.55;;;4.10;68.50;;;;;;4900267;29;27463;-59
2021/03/02 00:03:40;;;;;;;11.77;6.78;;;4.10;68.70;;;;;;4903027;29;27370;-60
2021/03/02 00:06:24;;;;;;;10.43;6.47;;;4.10;68.70;;;;;;4890493;29;27331;-60
2021/03/02 00:09:09;;;;;;;11.35;6.43;;;4.00;68.70;;;;;;4903312;29;27367;-60
2021/03/02 00:11:53;;;;;;;10.52;6.28;;;4.00;68.70;;;;;;4903344;29;27424;-59
2021/03/02 00:14:38;;;;;;;11.25;6.47;;;4.00;68.80;;;;;;4887717;29;27376;-59
2021/03/02 00:17:33;;;;;;;12.40;6.35;;;3.90;68.70;;;;;;4890289;29;27384;-59
2021/03/02 00:20:22;;;;;;;11.65;6.75;;;3.90;68.80;;;;;;4890334;29;27373;-58
2021/03/02 00:23:07;;;;;;;12.00;6.68;;;3.90;68.80;;;;;;4890360;29;27409;-58
2021/03/02 00:25:54;;;;;;;12.88;6.50;;;3.80;68.90;;;;;;4890229;29;27416;-59
2021/03/02 00:28:39;;;;;;;10.90;5.82;;;3.80;68.90;;;;;;4902723;29;27423;-59
2021/03/02 00:31:24;;;;;;;12.52;6.35;;;3.80;69.10;;;;;;4902588;29;27432;-60
2021/03/02 00:34:08;;;;;;;12.73;6.45;;;3.80;69.10;;;;;;4890440;29;27466;-60
2021/03/02 00:36:53;;;;;;;10.68;5.90;;;3.70;69.10;;;;;;4902704;29;27482;-60
2021/03/02 00:39:38;;;;;;;9.63;6.10;;;3.70;69.10;;;;;;4890294;29;27486;-60
2021/03/02 00:42:22;;;;;;;12.38;6.82;;;3.70;69.10;;;;;;4890016;29;27411;-60
2021/03/02 00:45:07;;;;;;;12.10;5.80;;;3.70;69.20;;;;;;4890308;29;27434;-59
2021/03/02 00:47:52;;;;;;;15.30;7.10;;;3.60;69.20;;;;;;4889902;29;27480;-54
2021/03/02 00:50:37;;;;;;;9.90;6.03;;;3.60;69.10;;;;;;4886087;29;27494;-60
2021/03/02 00:53:22;;;;;;;11.32;5.55;;;3.60;69.20;;;;;;4889826;29;27517;-54
2021/03/02 00:56:07;;;;;;;12.07;5.82;;;3.50;69.30;;;;;;4889929;29;27485;-60
2021/03/02 00:58:53;;;;;;;10.18;6.55;;;3.50;69.20;;;;;;4887004;29;27320;-59
2021/03/02 01:01:37;;;;;;;13.57;6.53;;;3.50;69.30;;;;;;4889488;29;27482;-59
2021/03/02 01:04:24;;;;;;;9.68;6.00;;;3.50;69.30;;;;;;4886129;29;27505;-60
2021/03/02 01:07:08;;;;;;;12.77;6.25;;;3.50;69.30;;;;;;4899542;29;27410;-60
2021/03/02 01:09:52;;;;;;;10.90;5.60;;;3.40;69.30;;;;;;4889833;29;27398;-60
2021/03/02 01:12:38;;;;;;;12.13;5.85;;;3.40;69.40;;;;;;4886067;29;27430;-59
2021/03/02 01:15:22;;;;;;;10.13;6.25;;;3.40;69.50;;;;;;4889466;29;27446;-60
2021/03/02 01:18:07;;;;;;;11.55;6.05;;;3.30;69.50;;;;;;4889584;29;27434;-55
2021/03/02 01:20:52;;;;;;;11.27;5.97;;;3.30;69.60;;;;;;4889758;29;27453;-60
2021/03/02 01:23:36;;;;;;;10.00;5.75;;;3.30;69.50;;;;;;4889346;29;27514;-60
2021/03/02 01:26:20;;;;;;;13.98;7.03;;;3.30;69.60;;;;;;4889613;29;27404;-60
2021/03/02 01:29:05;;;;;;;10.60;6.40;;;3.30;69.60;;;;;;4889660;29;27445;-59
2021/03/02 01:31:49;;;;;;;12.32;6.28;;;3.20;70.40;;;;;;4889309;29;27401;-54
2021/03/02 01:34:34;;;;;;;10.75;6.50;;;3.20;69.60;;;;;;4889228;29;27407;-59
2021/03/02 01:37:19;;;;;;;11.52;6.13;;;3.20;69.70;;;;;;4889138;29;27400;-59
2021/03/02 01:40:10;;;;;;;9.90;5.70;;;3.20;69.70;;;;;;4889262;29;27386;-58
2021/03/02 01:42:55;;;;;;;10.70;6.30;;;3.10;69.70;;;;;;4889162;29;27496;-59
2021/03/02 01:45:39;;;;;;;11.82;6.13;;;3.10;69.80;;;;;;4888860;29;27476;-59
2021/03/02 01:48:24;;;;;;;13.68;6.40;;;3.10;69.80;;;;;;4889028;29;27475;-60
2021/03/02 01:51:08;;;;;;;11.80;6.18;;;3.10;69.80;;;;;;4888651;29;27600;-60
2021/03/02 01:53:53;;;;;;;12.20;6.60;;;3.00;69.90;;;;;;4889014;29;27511;-60
2021/03/02 01:56:38;;;;;;;14.13;7.07;;;3.00;69.90;;;;;;4888942;29;27911;-59
2021/03/02 01:59:22;;;;;;;10.95;6.10;;;3.00;70.00;;;;;;4889185;29;27527;-60
2021/03/02 02:02:06;;;;;;;13.13;7.05;;;3.00;70.20;;;;;;4888721;29;27470;-59
2021/03/02 02:04:55;;;;;;;12.60;6.95;;;3.00;70.00;;;;;;4901484;29;27421;-53
2021/03/02 02:07:42;;;;;;;12.52;6.38;;;2.90;70.00;;;;;;4885801;29;27483;-59
2021/03/02 02:10:52;;;;;;;13.98;7.65;;;2.90;70.00;;;;;;4888710;29;27481;-58
2021/03/02 02:13:39;;;;;;;12.75;6.97;;;2.90;70.20;;;;;;4874970;29;27413;-54
2021/03/02 02:16:23;;;;;;;13.50;6.72;;;2.90;70.20;;;;;;4888493;29;27412;-59
2021/03/02 02:19:12;;;;;;;14.88;7.70;;;2.90;70.20;;;;;;4888892;29;27398;-59
2021/03/02 02:22:20;;;;;;;16.40;7.97;;;2.80;70.20;;;;;;4888666;29;27349;-60
2021/03/02 02:25:38;;;;;;;15.55;8.82;;;2.80;70.20;;;;;;4871696;29;27321;-59
2021/03/02 02:28:23;;;;;;;13.30;7.43;;;2.80;70.20;;;;;;4888842;29;27403;-53
2021/03/02 02:31:07;;;;;;;13.20;6.97;;;2.80;70.20;;;;;;4901112;29;27474;-54
2021/03/02 02:33:52;;;;;;;13.20;7.25;;;2.70;70.20;;;;;;4885449;29;27419;-54
2021/03/02 02:36:36;;;;;;;14.68;7.30;;;2.70;70.30;;;;;;4901085;29;27503;-60
2021/03/02 02:39:21;;;;;;;14.60;7.60;;;2.70;70.20;;;;;;4888709;29;27472;-60
2021/03/02 02:42:05;;;;;;;16.00;7.50;;;2.70;70.40;;;;;;4900978;29;27400;-59
2021/03/02 02:44:50;;;;;;;12.32;6.88;;;2.70;70.40;;;;;;4898202;29;27389;-59
2021/03/02 02:47:34;;;;;;;13.27;7.40;;;2.60;70.20;;;;;;4900963;29;27417;-59
2021/03/02 02:50:19;;;;;;;14.15;7.60;;;2.60;70.20;;;;;;4888628;29;27322;-58
2021/03/02 02:53:03;;;;;;;14.85;8.07;;;2.60;70.30;;;;;;4901081;29;27387;-60
2021/03/02 02:55:55;;;;;;;14.55;7.35;;;2.50;70.20;;;;;;4900751;29;27385;-59
2021/03/02 02:58:58;;;;;;;14.13;7.00;;;2.50;70.40;;;;;;4890253;29;27525;-60
2021/03/02 03:01:44;;;;;;;15.00;6.82;;;2.50;70.40;;;;;;4891236;29;27385;-60
2021/03/02 03:04:57;;;;;;;13.13;7.28;;;2.50;70.40;;;;;;4891016;29;28419;-59
2021/03/02 03:07:51;;;;;;;14.55;7.97;;;2.50;70.40;;;;;;4891359;29;27519;-60
2021/03/02 03:10:36;;;;;;;15.60;7.10;;;2.40;70.40;;;;;;4891410;29;27415;-59
2021/03/02 03:13:22;;;;;;;12.77;7.57;;;2.40;70.40;;;;;;4904158;29;27420;-59
2021/03/02 03:16:08;;;;;;;13.25;6.93;;;2.40;70.50;;;;;;4891357;29;27410;-60
2021/03/02 03:18:59;;;;;;;15.45;7.18;;;2.40;70.50;;;;;;4891141;29;27471;-59
2021/03/02 03:21:44;;;;;;;13.50;7.40;;;2.40;70.50;;;;;;4891238;29;27338;-59
2021/03/02 03:24:29;;;;;;;12.68;7.53;;;2.30;70.50;;;;;;4903948;29;27406;-52
2021/03/02 03:27:13;;;;;;;13.60;8.00;;;2.30;70.50;;;;;;4903950;29;27340;-58
2021/03/02 03:29:59;;;;;;;15.00;7.40;;;2.30;70.50;;;;;;4903627;29;27388;-60
2021/03/02 03:32:45;;;;;;;15.05;7.30;;;2.30;70.70;;;;;;4903786;29;27459;-60
2021/03/02 03:35:30;;;;;;;12.93;7.35;;;2.30;70.70;;;;;;4903312;29;27397;-60
2021/03/02 03:38:14;;;;;;;18.77;8.38;;;2.20;70.70;;;;;;4903306;29;27350;-60
2021/03/02 03:40:59;;;;;;;16.35;7.65;;;2.20;70.50;;;;;;4890904;29;27553;-60
2021/03/02 03:43:43;;;;;;;14.88;7.25;;;2.20;70.50;;;;;;4891222;29;27327;-59
2021/03/02 03:46:28;;;;;;;12.57;7.43;;;2.20;70.50;;;;;;4891177;29;27390;-60
2021/03/02 03:49:13;;;;;;;15.80;7.22;;;2.20;70.50;;;;;;4891027;29;27402;-60
2021/03/02 03:51:58;;;;;;;15.60;7.85;;;2.20;70.60;;;;;;4903573;29;27423;-59
2021/03/02 03:54:42;;;;;;;14.07;7.00;;;2.10;70.60;;;;;;4891004;29;27396;-59
2021/03/02 03:57:27;;;;;;;14.88;7.95;;;2.10;70.60;;;;;;4890390;29;27339;-60
2021/03/02 04:00:12;;;;;;;15.88;8.32;;;2.10;70.70;;;;;;4903150;29;27980;-59
2021/03/02 04:02:56;;;;;;;13.30;7.97;;;2.10;70.80;;;;;;4889780;29;27350;-59
2021/03/02 04:05:41;;;;;;;14.55;7.75;;;2.00;70.70;;;;;;4903185;29;27439;-59
2021/03/02 04:08:26;;;;;;;17.17;8.35;;;2.00;70.80;;;;;;4890157;29;27476;-59
2021/03/02 04:11:11;;;;;;;14.68;8.25;;;2.00;70.80;;;;;;4890682;29;27848;-58
2021/03/02 04:13:56;;;;;;;15.50;7.78;;;2.00;70.70;;;;;;4899897;29;27492;-59
2021/03/02 04:16:41;;;;;;;16.08;7.90;;;2.00;70.70;;;;;;4902772;29;27491;-60
2021/03/02 04:19:26;;;;;;;16.00;8.63;;;1.90;70.70;;;;;;4890395;29;27392;-59
2021/03/02 04:22:11;;;;;;;12.07;7.53;;;1.90;70.70;;;;;;4890259;29;27365;-59
2021/03/02 04:24:55;;;;;;;14.60;7.55;;;1.90;70.70;;;;;;4890569;29;27418;-59
2021/03/02 04:27:40;;;;;;;14.63;8.32;;;1.90;70.70;;;;;;4890551;29;27575;-60
2021/03/02 04:30:25;;;;;;;13.65;7.65;;;1.90;70.70;;;;;;4890473;29;27411;-59
2021/03/02 04:33:12;;;;;;;15.75;8.02;;;1.80;70.70;;;;;;4888097;29;27879;-56
2021/03/02 04:35:57;;;;;;;14.57;8.25;;;1.80;70.70;;;;;;4902488;29;27415;-59
2021/03/02 04:38:42;;;;;;;14.25;7.68;;;1.80;70.80;;;;;;4902692;29;27339;-60
2021/03/02 04:41:26;;;;;;;14.85;6.82;;;1.80;70.80;;;;;;4890316;29;27323;-59
2021/03/02 04:44:11;;;;;;;17.45;7.30;;;1.80;70.90;;;;;;4889964;29;27935;-60
2021/03/02 04:46:55;;;;;;;15.00;7.50;;;1.80;70.80;;;;;;4889922;29;27480;-59
2021/03/02 04:49:40;;;;;;;12.77;7.20;;;1.70;70.60;;;;;;4889957;29;27467;-59
2021/03/02 04:52:24;;;;;;;16.48;7.63;;;1.70;70.60;;;;;;4890158;29;27522;-60
2021/03/02 04:55:10;;;;;;;13.48;7.25;;;1.70;70.60;;;;;;4889905;29;27506;-60
2021/03/02 04:57:54;;;;;;;14.77;7.93;;;1.70;70.60;;;;;;4902631;29;27494;-60
2021/03/02 05:00:38;;;;;;;12.90;7.40;;;1.70;70.70;;;;;;4889426;29;27452;-59
2021/03/02 05:03:23;;;;;;;15.55;7.50;;;1.60;70.60;;;;;;4889224;29;27577;-60
2021/03/02 05:06:07;;;;;;;13.82;7.68;;;1.60;70.70;;;;;;4889685;29;27887;-59
2021/03/02 05:08:52;;;;;;;14.52;8.52;;;1.60;70.70;;;;;;4889902;29;27472;-59
2021/03/02 05:11:37;;;;;;;13.35;7.30;;;1.60;70.70;;;;;;4889620;29;27447;-59
2021/03/02 05:14:21;;;;;;;15.25;8.23;;;1.50;70.70;;;;;;4889791;29;27515;-59
2021/03/02 05:17:06;;;;;;;15.73;7.85;;;1.50;70.60;;;;;;4889395;29;27418;-58
2021/03/02 05:19:50;;;;;;;13.23;7.25;;;1.50;70.60;;;;;;4889269;29;27522;-60
2021/03/02 05:22:35;;;;;;;15.57;8.57;;;1.50;70.60;;;;;;4889227;29;27417;-59
2021/03/02 05:25:19;;;;;;;16.00;8.48;;;1.50;70.70;;;;;;4889448;29;27332;-59
2021/03/02 05:28:04;;;;;;;19.17;9.48;;;1.50;70.70;;;;;;4886610;29;27393;-60
2021/03/02 05:30:49;;;;;;;22.15;10.73;;;1.50;70.70;;;;;;4889593;29;27401;-60
2021/03/02 05:33:33;;;;;;;17.10;8.98;;;1.50;71.60;;;;;;4889303;29;27356;-59
2021/03/02 05:36:17;;;;;;;17.98;9.82;;;1.40;70.70;;;;;;4889428;29;27318;-51
2021/03/02 05:39:03;;;;;;;18.35;9.98;;;1.40;70.70;;;;;;4889458;29;28035;-58
2021/03/02 05:41:47;;;;;;;17.58;9.68;;;1.40;70.80;;;;;;4885662;29;27420;-60
2021/03/02 05:44:33;;;;;;;19.20;10.40;;;1.40;70.90;;;;;;4889178;29;27370;-59
2021/03/02 05:47:17;;;;;;;22.13;10.02;;;1.40;71.00;;;;;;4901881;29;27335;-59
2021/03/02 05:50:02;;;;;;;16.17;9.32;;;1.40;70.90;;;;;;4898598;29;27964;-59
2021/03/02 05:52:47;;;;;;;17.67;9.40;;;1.40;70.90;;;;;;4888814;29;27323;-59
2021/03/02 05:55:33;;;;;;;17.50;9.02;;;1.30;70.90;;;;;;4901669;29;27411;-59
2021/03/02 05:58:17;;;;;;;14.70;8.40;;;1.30;70.90;;;;;;4888970;29;27403;-54
2021/03/02 06:01:03;;;;;;;15.50;8.73;;;1.30;70.90;;;;;;4888846;29;27323;-60
2021/03/02 06:03:48;;;;;;;16.10;8.57;;;1.30;70.90;;;;;;4888012;29;27338;-59
2021/03/02 06:06:33;;;;;;;20.58;9.30;;;1.30;70.90;;;;;;4901431;29;27408;-59
2021/03/02 06:09:18;;;;;;;16.42;8.93;;;1.30;70.90;;;;;;4888747;29;27412;-60
2021/03/02 06:12:06;;;;;;;15.05;8.13;;;1.30;70.80;;;;;;4888859;29;27976;-60
2021/03/02 06:15:04;;;;;;;12.95;8.38;;;1.30;70.70;;;;;;4901243;29;27367;-60
2021/03/02 06:18:11;;;;;;;13.23;7.82;;;1.30;70.70;;;;;;4889085;29;27458;-55
2021/03/02 06:21:14;;;;;;;17.23;7.97;;;1.30;70.70;;;;;;4899282;29;27351;-54
2021/03/02 06:23:58;;;;;;;17.75;8.25;;;1.30;70.70;;;;;;4888648;29;27513;-56
2021/03/02 06:26:43;;;;;;;15.38;8.55;;;1.30;70.60;;;;;;4888867;29;27434;-59
2021/03/02 06:29:27;;;;;;;12.88;8.55;;;1.30;70.60;;;;;;4888966;29;27467;-60
2021/03/02 06:32:12;;;;;;;18.05;7.63;;;1.30;70.50;;;;;;4902574;29;27464;-60
2021/03/02 06:34:56;;;;;;;22.73;8.85;;;1.40;70.60;;;;;;4891434;29;27438;-52
2021/03/02 06:37:45;;;;;;;17.27;8.68;;;1.40;70.50;;;;;;4891834;29;27482;-59
2021/03/02 06:40:46;;;;;;;17.50;8.68;;;1.40;70.40;;;;;;4888150;29;27399;-53
2021/03/02 06:43:30;;;;;;;14.75;8.05;;;1.40;70.50;;;;;;4891905;29;27384;-59
2021/03/02 06:46:15;;;;;;;15.40;7.40;;;1.40;70.40;;;;;;4891755;29;27328;-60
2021/03/02 06:49:00;;;;;;;21.33;9.27;;;1.50;70.40;;;;;;4891565;29;27560;-59
2021/03/02 06:51:45;;;;;;;19.45;7.72;;;1.50;70.30;;;;;;4891780;29;27326;-59
2021/03/02 06:54:30;;;;;;;15.07;8.32;;;1.50;70.30;;;;;;4891697;29;27395;-59
2021/03/02 06:57:22;;;;;;;14.23;7.93;;;1.50;70.20;;;;;;4903865;29;27356;-59
2021/03/02 07:00:07;;;;;;;14.15;8.02;;;1.60;70.20;;;;;;4891649;29;27478;-59
2021/03/02 07:02:52;;;;;;;13.85;8.13;;;1.60;70.20;;;;;;4903395;29;27582;-59
2021/03/02 07:05:36;;;;;;;16.58;7.78;;;1.60;70.20;;;;;;4904271;29;27321;-59
2021/03/02 07:08:21;;;;;;;18.00;9.05;;;1.70;70.20;;;;;;4904249;29;27471;-57
2021/03/02 07:11:05;;;;;;;17.83;9.25;;;1.70;70.20;;;;;;4891266;29;27418;-54
2021/03/02 07:13:50;;;;;;;14.57;8.10;;;1.80;70.30;;;;;;4891444;29;27405;-60
2021/03/02 07:16:47;;;;;;;16.17;8.85;;;1.80;70.20;;;;;;4891095;29;27429;-60
2021/03/02 07:19:31;;;;;;;24.33;10.30;;;1.80;70.20;;;;;;4891314;29;27390;-60
2021/03/02 07:22:16;;;;;;;22.88;10.15;;;1.90;70.20;;;;;;4903899;29;27427;-60
2021/03/02 07:25:01;;;;;;;19.67;10.63;;;2.00;70.20;;;;;;4903841;29;27430;-60
2021/03/02 07:27:48;;;;;;;23.67;12.13;;;2.00;70.20;;;;;;4891491;29;27390;-59
2021/03/02 07:30:36;;;;;;;23.40;11.57;;;2.10;70.10;;;;;;4891105;29;27416;-59
2021/03/02 07:33:20;;;;;;;26.25;13.27;;;2.10;70.10;;;;;;4903374;29;27659;-59
2021/03/02 07:36:05;;;;;;;26.20;13.45;;;2.20;70.10;;;;;;4903609;29;27350;-59
2021/03/02 07:39:19;;;;;;;26.65;13.80;;;2.20;70.00;;;;;;4903617;29;27383;-59
2021/03/02 07:42:21;;;;;;;36.55;15.57;;;2.40;69.90;;;;;;4885862;29;27847;-60
2021/03/02 07:45:18;;;;;;;31.08;15.55;;;2.80;68.90;;;;;;4900633;29;27488;-59
2021/03/02 07:48:03;;;;;;;31.98;16.80;;;3.60;66.50;;;;;;4900489;29;27421;-59
2021/03/02 07:50:48;;;;;;;36.97;19.25;;;4.40;64.10;;;;;;4891258;29;27372;-60
2021/03/02 07:53:32;;;;;;;35.25;17.95;;;5.10;61.90;;;;;;4903589;29;27374;-57
2021/03/02 07:56:24;;;;;;;39.55;19.80;;;5.80;59.80;;;;;;4890599;29;27453;-56
2021/03/02 07:59:12;;;;;;;40.65;20.05;;;6.50;58.20;;;;;;4903020;29;27427;-61
2021/03/02 08:02:21;;;;;;;34.55;19.02;;;7.10;57.00;;;;;;4890282;29;27319;-61
2021/03/02 08:05:38;;;;;;;39.13;18.40;;;7.80;55.60;;;;;;4888006;29;27674;-60
2021/03/02 08:08:23;;;;;;;31.65;17.25;;;8.50;54.30;;;;;;4866140;29;27499;-59
2021/03/02 08:11:33;;;;;;;36.08;17.80;;;9.10;53.50;;;;;;4890394;29;27431;-61
2021/03/02 08:14:17;;;;;;;29.95;16.63;;;9.60;53.00;;;;;;4890798;29;27320;-57
2021/03/02 08:17:05;;;;;;;28.73;15.70;;;10.20;52.40;;;;;;4890476;29;27336;-58
2021/03/02 08:20:07;;;;;;;31.10;15.93;;;10.70;51.80;;;;;;4890686;29;27532;-58
2021/03/02 08:22:52;;;;;;;30.88;16.05;;;11.20;52.20;;;;;;4890776;29;27320;-59
2021/03/02 08:25:36;;;;;;;25.63;14.07;;;11.60;52.00;;;;;;4890377;29;27358;-59
2021/03/02 08:28:21;;;;;;;25.77;14.15;;;12.10;51.10;;;;;;4890262;29;27903;-59
2021/03/02 08:31:11;;;;;;;21.23;13.60;;;12.60;51.00;;;;;;4902811;29;27491;-59
2021/03/02 08:33:57;;;;;;;23.77;13.57;;;13.00;50.70;;;;;;4890322;29;27415;-59
2021/03/02 08:36:42;;;;;;;22.70;13.45;;;13.40;50.60;;;;;;4889586;29;27467;-59
2021/03/02 08:39:27;;;;;;;22.50;12.30;;;13.80;49.60;;;;;;4890092;29;27521;-59
2021/03/02 08:42:12;;;;;;;19.80;13.27;;;14.20;49.20;;;;;;4890276;29;27486;-59
2021/03/02 08:45:12;;;;;;;19.48;12.68;;;14.60;49.00;;;;;;4890397;29;27427;-59
2021/03/02 08:48:28;;;;;;;17.40;11.30;;;15.10;48.70;;;;;;4890003;29;27401;-59
2021/03/02 08:51:12;;;;;;;18.80;11.93;;;15.50;48.10;;;;;;4889928;29;27327;-59
2021/03/02 08:53:57;;;;;;;21.27;11.88;;;15.90;47.80;;;;;;4902498;29;27546;-59
2021/03/02 08:56:41;;;;;;;15.43;11.98;;;16.30;47.60;;;;;;4901372;29;27395;-59
2021/03/02 08:59:31;;;;;;;16.98;10.88;;;16.60;46.70;;;;;;4887350;29;27403;-62
2021/03/02 09:02:16;;;;;;;17.73;10.98;;;17.00;46.30;;;;;;4901484;29;27876;-59
2021/03/02 09:05:00;;;;;;;15.70;11.15;;;17.40;45.70;;;;;;4889585;29;27569;-59
2021/03/02 09:08:03;;;;;;;17.42;11.57;;;17.80;45.20;;;;;;4902371;29;27397;-59
2021/03/02 09:11:02;;;;;;;18.45;10.68;;;18.20;44.70;;;;;;4886933;29;27369;-59
2021/03/02 09:13:46;;;;;;;16.08;10.73;;;18.60;44.10;;;;;;4889559;29;27518;-59
2021/03/02 09:16:38;;;;;;;14.25;9.82;;;19.00;43.60;;;;;;4889369;29;27351;-57
2021/03/02 09:19:29;;;;;;;13.90;9.05;;;19.40;43.00;;;;;;4889526;29;27359;-59
2021/03/02 09:22:15;;;;;;;14.85;10.13;;;19.70;42.30;;;;;;4889408;29;27421;-59
2021/03/02 09:24:59;;;;;;;13.68;10.43;;;20.10;42.00;;;;;;4889451;29;27443;-59
2021/03/02 09:27:44;;;;;;;13.38;9.70;;;20.40;41.40;;;;;;4889388;29;27487;-59
2021/03/02 09:30:28;;;;;;;12.35;9.77;;;20.70;41.00;;;;;;4888198;29;27522;-59
2021/03/02 09:33:13;;;;;;;12.65;9.40;;;21.00;40.90;;;;;;4901979;29;27438;-59
2021/03/02 09:35:58;;;;;;;13.52;9.63;;;21.30;40.20;;;;;;4886354;29;27977;-60
2021/03/02 09:38:42;;;;;;;14.07;9.10;;;21.50;39.70;;;;;;4889539;29;27456;-60
2021/03/02 09:41:37;;;;;;;14.02;9.10;;;21.80;39.40;;;;;;4889575;29;27494;-60
2021/03/02 09:44:30;;;;;;;13.55;9.63;;;22.10;39.20;;;;;;4889221;29;27418;-60
2021/03/02 09:47:17;;;;;;;16.90;9.25;;;22.40;38.80;;;;;;4888633;29;27309;-60
2021/03/02 09:50:07;;;;;;;11.70;9.07;;;22.60;38.20;;;;;;4886428;29;27410;-60
2021/03/02 09:52:52;;;;;;;15.15;10.27;;;22.90;37.70;;;;;;4889184;29;27380;-59
2021/03/02 09:55:37;;;;;;;13.55;9.00;;;23.20;37.30;;;;;;4889282;29;27385;-58
2021/03/02 09:58:23;;;;;;;10.75;8.77;;;23.40;37.00;;;;;;4888780;29;27470;-59
2021/03/02 10:01:10;;;;;;;10.68;8.48;;;23.70;36.60;;;;;;4874446;29;27528;-59
2021/03/02 10:03:55;;;;;;;11.07;9.05;;;24.00;36.10;;;;;;4889295;29;27420;-59
2021/03/02 10:06:39;;;;;;;11.02;8.50;;;24.20;36.00;;;;;;4901150;29;27359;-59
2021/03/02 10:09:25;;;;;;;10.20;8.32;;;24.40;35.50;;;;;;4888786;29;27419;-60
2021/03/02 10:12:13;;;;;;;12.43;8.10;;;24.60;35.20;;;;;;4889084;29;27440;-59
2021/03/02 10:14:58;;;;;;;10.52;7.63;;;24.80;34.90;;;;;;4889158;29;27415;-60
2021/03/02 10:17:42;;;;;;;14.65;9.02;;;25.00;34.60;;;;;;4888523;29;26954;-59
2021/03/02 10:20:28;;;;;;;12.07;8.32;;;25.30;34.30;;;;;;4888734;29;27446;-59
2021/03/02 10:23:13;;;;;;;12.50;8.45;;;25.50;33.90;;;;;;4885196;29;27514;-59
2021/03/02 10:25:58;;;;;;;11.02;7.38;;;25.70;33.90;;;;;;4885985;29;27450;-59
2021/03/02 10:28:42;;;;;;;10.38;8.35;;;25.90;33.60;;;;;;4888612;29;27475;-59
2021/03/02 10:31:27;;;;;;;10.07;8.35;;;26.10;33.50;;;;;;4888543;29;27503;-59
2021/03/02 10:34:12;;;;;;;12.63;8.25;;;26.30;33.10;;;;;;4888834;29;27442;-60
2021/03/02 10:36:56;;;;;;;9.07;7.30;;;26.50;33.40;;;;;;4888633;29;27428;-59
2021/03/02 10:39:41;;;;;;;13.90;7.38;;;26.60;33.00;;;;;;4888570;29;27393;-60
2021/03/02 10:42:26;;;;;;;9.98;7.30;;;26.90;33.40;;;;;;4888734;29;27396;-59
2021/03/02 10:45:10;;;;;;;11.50;8.40;;;27.10;32.60;;;;;;4888446;29;27533;-59
2021/03/02 10:47:55;;;;;;;7.68;6.82;;;27.30;32.40;;;;;;4888486;29;27333;-59
2021/03/02 10:50:39;;;;;;;12.10;6.72;;;27.40;32.20;;;;;;4887870;29;27392;-59
2021/03/02 10:53:24;;;;;;;11.43;7.35;;;27.60;32.00;;;;;;4901192;29;27332;-60
2021/03/02 10:56:08;;;;;;;10.18;7.72;;;27.80;31.80;;;;;;4888464;29;27373;-59
2021/03/02 10:58:53;;;;;;;7.78;6.97;;;27.90;31.40;;;;;;4888357;29;27401;-59
2021/03/02 11:01:37;;;;;;;10.00;7.15;;;28.10;31.10;;;;;;4887649;29;27392;-59
2021/03/02 11:04:21;;;;;;;8.80;6.95;;;28.30;31.10;;;;;;4888375;29;27348;-59
2021/03/02 11:07:06;;;;;;;7.90;6.88;;;28.50;31.00;;;;;;4897984;29;27496;-59
2021/03/02 11:09:50;;;;;;;9.43;6.10;;;28.60;30.80;;;;;;4888206;29;27490;-59
2021/03/02 11:12:35;;;;;;;11.00;6.53;;;28.80;30.70;;;;;;4888221;29;27438;-59
2021/03/02 11:15:20;;;;;;;11.45;7.13;;;28.90;30.30;;;;;;4888138;29;27971;-59
2021/03/02 11:18:04;;;;;;;6.78;5.82;;;29.10;30.20;;;;;;4887773;29;27467;-59
2021/03/02 11:20:49;;;;;;;11.25;5.85;;;29.20;30.00;;;;;;4891373;29;27480;-59
2021/03/02 11:23:34;;;;;;;7.88;6.35;;;29.40;29.80;;;;;;4891594;29;27423;-59
2021/03/02 11:26:18;;;;;;;6.28;5.68;;;29.50;29.60;;;;;;4891526;29;27891;-59
2021/03/02 11:29:03;;;;;;;8.60;6.18;;;29.70;29.50;;;;;;4891221;29;27422;-59
2021/03/02 11:31:48;;;;;;;9.35;5.57;;;29.80;29.30;;;;;;4891232;29;27502;-59
2021/03/02 11:34:33;;;;;;;7.47;6.00;;;29.90;29.30;;;;;;4891397;29;27475;-59
2021/03/02 11:37:18;;;;;;;8.13;5.68;;;30.10;29.30;;;;;;4891096;29;27911;-59
2021/03/02 11:40:05;;;;;;;8.85;6.18;;;30.20;29.30;;;;;;4890998;29;27426;-59
2021/03/02 11:42:52;;;;;;;8.00;5.75;;;30.30;28.70;;;;;;4888284;29;27467;-59
2021/03/02 11:45:37;;;;;;;8.45;5.78;;;30.40;28.50;;;;;;4887269;29;27374;-59
2021/03/02 11:48:22;;;;;;;8.73;4.97;;;30.50;28.40;;;;;;4891177;29;27851;-59
2021/03/02 11:51:07;;;;;;;7.05;5.88;;;30.60;28.40;;;;;;4890851;29;27436;-59
2021/03/02 11:53:51;;;;;;;9.13;4.47;;;30.70;28.50;;;;;;4890163;29;27463;-59
2021/03/02 11:56:35;;;;;;;6.50;5.55;;;30.80;28.20;;;;;;4890692;29;27434;-58
2021/03/02 11:59:20;;;;;;;7.90;4.97;;;30.80;28.00;;;;;;4891026;29;27995;-59
2021/03/02 12:02:05;;;;;;;7.63;5.22;;;30.90;28.00;;;;;;4890447;29;27414;-59
2021/03/02 12:04:49;;;;;;;8.38;5.72;;;31.00;28.20;;;;;;4890709;29;27471;-59
2021/03/02 12:07:34;;;;;;;7.53;5.47;;;31.00;28.20;;;;;;4890918;29;27394;-59
2021/03/02 12:10:19;;;;;;;7.97;5.68;;;31.10;28.10;;;;;;4890926;29;27442;-59
2021/03/02 12:13:04;;;;;;;7.00;5.60;;;31.10;28.00;;;;;;4890787;29;27414;-59
2021/03/02 12:15:48;;;;;;;8.75;5.38;;;31.10;27.90;;;;;;4890265;29;27516;-59
2021/03/02 12:18:33;;;;;;;8.77;5.30;;;31.20;27.60;;;;;;4890423;29;27532;-59
2021/03/02 12:21:17;;;;;;;5.45;4.32;;;31.20;27.80;;;;;;4886639;29;28049;-59
2021/03/02 12:24:02;;;;;;;6.82;4.72;;;31.20;27.80;;;;;;4890628;29;27467;-59
2021/03/02 12:26:47;;;;;;;5.93;5.00;;;31.20;27.80;;;;;;4890331;29;26934;-59
2021/03/02 12:29:32;;;;;;;6.47;4.65;;;31.30;28.20;;;;;;4890412;29;27475;-59
2021/03/02 12:32:17;;;;;;;7.22;5.13;;;31.20;27.80;;;;;;4890245;29;27495;-59
2021/03/02 12:35:03;;;;;;;5.65;4.22;;;31.20;27.30;;;;;;4890559;29;27438;-59
2021/03/02 12:37:48;;;;;;;6.13;4.82;;;31.20;28.00;;;;;;4889977;29;27494;-59
2021/03/02 12:40:32;;;;;;;6.30;4.45;;;31.20;27.40;;;;;;4890444;29;27493;-59
2021/03/02 12:43:20;;;;;;;5.57;4.40;;;31.20;27.60;;;;;;4889606;29;27514;-59
2021/03/02 12:46:04;;;;;;;11.27;4.95;;;31.20;27.60;;;;;;4890021;29;27500;-59
2021/03/02 12:48:49;;;;;;;7.00;4.25;;;31.20;27.80;;;;;;4887082;29;27437;-59
2021/03/02 12:51:33;;;;;;;5.20;4.38;;;31.20;27.10;;;;;;4890133;29;27387;-59
2021/03/02 12:54:17;;;;;;;8.68;4.15;;;31.30;27.30;;;;;;4889912;29;27467;-60
2021/03/02 12:57:02;;;;;;;5.70;4.20;;;31.30;27.50;;;;;;4889726;29;27438;-59
2021/03/02 12:59:47;;;;;;;7.63;3.97;;;31.30;27.60;;;;;;4889676;29;27397;-59
2021/03/02 13:02:32;;;;;;;7.60;4.40;;;31.20;27.80;;;;;;4889242;29;27411;-58
2021/03/02 13:05:17;;;;;;;8.18;4.53;;;31.20;27.80;;;;;;4902416;29;27345;-59
2021/03/02 13:08:02;;;;;;;10.30;4.57;;;31.20;27.70;;;;;;4902312;29;27492;-59
2021/03/02 13:10:46;;;;;;;8.32;4.38;;;31.10;27.30;;;;;;4889498;29;27591;-59
2021/03/02 13:13:36;;;;;;;4.78;4.00;;;31.10;27.60;;;;;;4889981;29;27398;-60
2021/03/02 13:16:20;;;;;;;6.18;4.30;;;31.10;27.80;;;;;;4902116;29;27471;-59
2021/03/02 13:19:07;;;;;;;6.63;4.20;;;31.00;27.00;;;;;;4902206;29;27447;-59
2021/03/02 13:21:52;;;;;;;9.88;4.20;;;31.00;27.20;;;;;;4889891;29;27407;-59
2021/03/02 13:24:37;;;;;;;4.45;3.20;;;31.00;26.90;;;;;;4889781;29;27407;-59
2021/03/02 13:27:22;;;;;;;6.65;3.53;;;30.90;27.30;;;;;;4889711;29;27346;-59
2021/03/02 13:30:08;;;;;;;6.55;3.58;;;30.90;27.30;;;;;;4889728;29;27467;-59
2021/03/02 13:32:55;;;;;;;6.63;3.35;;;30.80;26.90;;;;;;4889494;29;27400;-59
2021/03/02 13:35:41;;;;;;;5.88;3.15;;;30.70;26.90;;;;;;4889068;29;27397;-59
2021/03/02 13:38:25;;;;;;;5.40;2.95;;;30.70;27.20;;;;;;4901850;29;27855;-59
2021/03/02 13:41:10;;;;;;;3.45;2.92;;;30.60;26.90;;;;;;4901401;29;27391;-59
2021/03/02 13:43:58;;;;;;;8.90;3.45;;;30.60;26.60;;;;;;4901940;29;26934;-59
2021/03/02 13:46:50;;;;;;;6.35;3.03;;;30.50;26.30;;;;;;4889422;29;27447;-59
2021/03/02 13:49:34;;;;;;;6.15;3.22;;;30.40;26.70;;;;;;4889382;29;27335;-58
2021/03/02 13:52:19;;;;;;;5.75;2.88;;;30.30;26.50;;;;;;4901943;29;27395;-59
2021/03/02 13:55:07;;;;;;;7.18;3.13;;;30.30;26.30;;;;;;4901771;29;27388;-58
2021/03/02 13:57:52;;;;;;;6.75;3.35;;;30.10;25.90;;;;;;4888664;29;27414;-59
2021/03/02 14:00:37;;;;;;;6.97;3.33;;;30.00;25.70;;;;;;4898531;29;27435;-58
2021/03/02 14:03:22;;;;;;;7.78;3.15;;;29.90;26.50;;;;;;4887901;29;27581;-60
2021/03/02 14:06:08;;;;;;;5.25;3.13;;;29.80;26.90;;;;;;4889179;29;27438;-59
2021/03/02 14:08:53;;;;;;;4.28;2.85;;;29.70;27.20;;;;;;4885822;29;27472;-59
2021/03/02 14:11:38;;;;;;;6.53;2.75;;;29.60;27.80;;;;;;4889069;29;27493;-59
2021/03/02 14:14:23;;;;;;;6.93;3.05;;;29.50;28.00;;;;;;4888788;29;27537;-59
2021/03/02 14:17:11;;;;;;;7.72;3.95;;;29.30;27.80;;;;;;4887851;29;27496;-59
2021/03/02 14:19:55;;;;;;;7.53;3.58;;;29.10;27.00;;;;;;4888734;29;27449;-59
2021/03/02 14:22:40;;;;;;;5.88;3.55;;;29.00;27.00;;;;;;4901265;29;27459;-59